Timeline UpdatesTrip UpdatesNews PostsPvt PostsTravel TipsAdmin PostsConv PostsFollowed PostsChat RequestsBlog PostsPNR Posts

Disclaimer
Search
 
 
Wed Sep 3, 2014 02:55:25 ISTHomeTrainsΣChainsAtlasPNRForumGalleryNewsFAQTripsMembersLoginFeedback
No Recent News for this Train
Other Trains in the News **new
Latest...
Train No.16031 / 16032 Chennai Central – Jammutawi – Chennai Central Tri-weekly Express trains will be temporarily augmented by 1 Sleeper Class coach from 02.02.2014 to 13.03.2014 ex. Chennai Central and from 04.02.2014 to 15.03.2014 ex. Jammutawi.
Wed Nov 27, 2013 (07:28PM)
⇐ Return Journey: Train# 16032

16031/Andaman Express

Time-Table HAS CHANGED.
Sep 01 (7:12PM)
Change Departure Station:
Change Arrival Station:
Post a Train Travel TipPost a Train Travel Tip **new
Post a Comment/Question/Picture/VideoPost a Comment/Question/Picture/Video
Inaugural Run
Sun May 01, 1988
Pantry/Catering
✕ NO Pantry Car
✕ NO Catering
RSA - Rake Sharing
16031/16032/16093/16094/12755/12756 (renumbered 22613/22614) has RSA.
Rake/Coach Composition
LOCO-HCPV-HCPV-HCPV-HCPV-SLR-UR-UR-UR-S7-S6-S5-S4-S3-S2-S1-B1-UR-UR-SLR
Loco
WAP4 ED MAS to NDLS ; TKD WDM3A/ WDP4B/4D NDLS to...
Read more...
JAT
News    PNR    Forum    Time-Table    Availability    Fare Chart    Map    Arr/Dep History    Trips    Gallery    ΣChains    X/O    Timeline    
Travel Time: 8h 5m    8 halts    Distance: 411 km    Avg Speed: 50 km/hr
Type: Mail/Express
Zone: SR/Southern
Departs @ 14:55
Platform# ???
 M  TF 
Jhansi Junction/JHS 
Arrives @ 23:00
Platform# 5
 M  TF 
New Delhi/NDLS 

8 halts. 56 intermediate Stations between Jhansi Junction and New Delhi

Show ALL intermediate Stations  Show Old Time-Table

#CodeStation NameX/OArrivesAvgDepartsAvgHaltPFDay#KmSpeedElevZoneAddress
1MASChennai Central (12)  -05:15-21-1794.8679mSRChennai 600003, Tamil Nadu
2SPESullurupeta (3)  06:29-06:30-1m11-1712.4689mSR524121., Andhra Pradesh
3NYPNayadupeta (3)X  06:54-06:55-1m11-1685.22133mSRNayudupeta, Andhra Pradesh
4GDRGudur Junction (3)  08:15-08:17-2m31-1657.59219mSCRGudur, Andhra Pradesh
5NLRNellore (4)X  08:42-08:43-1m21-1619.07921mSCRNellore, Andhra Pradesh
6BTTRBitragunta (2)  09:09-09:10-1m11-1584.75815mSCRBitragunta, Andhra Pradesh
7KVZKavali (4)  09:27-09:28-1m31-1568.29121mSCRKavali, Andhra Pradesh
8SKMSingarayakonda (2)X  09:53-09:54-1m11-1530.55526mSCRSingarayakonda, Andhra Pradesh
9OGLOngole (3)  10:25-10:26-1m11-1502.28712mSCROngole, Andhra Pradesh
10CLXChirala (4)  11:00-11:01-1m21-1452.9758mSCRChirala, Andhra Pradesh
11BPPBapatla (3)  11:13-11:14-1m31-1437.85410mSCRBapatla, Andhra Pradesh
12NDONidubrolu (3)X  11:37-11:38-1m--1-1417.3329mSCRNidubrolu, Andhra Pradesh
13TELTenali Junction (5)  12:19-12:20-1m41-1395.25016mSCRTel: 08644-227834, Andhra Pradesh
14NGNTNew Guntur (1)  12:50-12:52-2m11-1370.31830mSCRGuntur City, Andhra Pradesh
15BZAVijayawada Junction (10)X  14:30-14:50-20m61-1340.26424mSCRVijayawada 520001, Andhra Pradesh
16MDRMadhira (2)  15:42-15:43-1m21-1284.612861mSCRKhammam Dist., Telangana
17KMTKhammam (2)X  16:04-16:06-2m21-1239.846118mSCRKhammam 507001, Telangana
18DKJDornakal Junction (3)  16:36-16:37-1m11-1216.881153mSCRWarangal District, Telangana
19MABDMahbubabad (2)  16:55-16:56-1m21-1192.390200mSCRWarangal Dist., Telangana
20KDMKesamudram (2)X  17:06-17:07-1m21-1177.456223mSCRWarangal Dist., Telangana
21WLWarangal (3)  17:55-18:00-5m21-1132.298271mSCRWarangal., Telangana
22JMKTJamikunta (2)  18:27-18:28-1m11-1088.191236mSCRKarimnagar Dist., Telangana
23PDPLPeddapalli Junction (2)  18:54-18:55-1m11-1048.681228mSCRKarimnagar Dist., Telangana
24RDMRamagundam (3)  19:08-19:09-1m11-1031.175170mSCRKarimnagar Dist. Ph : 08728 - 255237, Telangana
25MCIManchiryal (3)X  19:20-19:21-1m11-1017.340159mSCRAdilabad Dist., Telangana
26BPABellampalli (3)  19:51-19:52-1m11-997.5105205mSCRTel:.08735 223298, Telangana
27SKZRSirpur Kaghaznagar (3)  20:14-20:15-1m11-959.029181mSCRAdilabad Dist., Telangana
28BPQBalharshah Junction (5)XO  22:40-22:50-10m41-889.246188mCRBallarpur. Ph : 07172 - 240341, Maharashtra
29CDChandrapur Maharashtra (3)  23:08-23:09-1m--1-875.568194mCRChandrapur 442401, Maharashtra
30MJRIMajri Junction (3)X  23:39-23:40-1m--1-841.562198mCRDist. Chandrapur, Maharashtra
31WRRWarora (2)  23:52-23:53-1m--1-829.176214mCRWarora, Maharashtra
32HGTHinganghat (3)  00:24-00:25-1m--2-790.045228mCRHinganghat, Maharashtra
33SEGMSewagram Junction (5)  01:09-01:10-1m--2-756.954279mCRWardha, Maharashtra
34NGPNagpur Junction (8)  02:35-02:45-10m12-680.779314mCRNagpur 440001, Maharashtra
35PARPandhurna (2)  04:04-04:05-1m--2-576.356481mCRDistt: Chhindwara, Madhya Pradesh
36MTYMultai (2)X  04:49-04:50-1m--2-535.655762mCRMultai, Madhya Pradesh
37AMLAAmla Junction (5)X  05:15-05:17-2m--2-512.781733mCRAmla Distt. Betul, Madhya Pradesh
38BZUBetul (3)X  05:34-05:35-1m--2-489.855644mCRBetul, Madhya Pradesh
39GDYAGhoradongri (3)X  06:14-06:15-1m--2-453.938 CRBetul, Madhya Pradesh
40ETItarsi Junction (7)X  08:05-08:10-5m--2-383.552329mWCRItarsi 461111, Madhya Pradesh
41BPLBhopal Junction (6)O  09:55-10:00-5m22-291.855497mWCRBhopal, Madhya Pradesh
42BINABina Junction (4)  12:30-12:35-5m32-153.285414mWCRJn Pt - KATNI/GUNA/ BPL/JHS, Madhya Pradesh
43BABBabina (3)X  14:05-14:07-2m22-25.540285mNCRBabina, Uttar Pradesh
44JHS»Jhansi Junction (7)»X  14:45-14:53 14:55-8 10m--20.073259mNCRJhansi, Uttar Pradesh
45GWLGwalior Junction (4)  16:15-16:20-5m3297.793214mNCRGwalior, Madhya Pradesh
46MRAMorena (3)X  16:45-16:47-2m22136.349176mNCRMorena, Madhya Pradesh
47AGCAgra Cantt. (6)X  18:25-18:35 18:33-10 8m22215.739174mNCRAgra, Uttar Pradesh
48MTJMathura Junction (10)  19:55-20:00-5m22269.468179mNCRMathura, Uttar Pradesh
49FDBFaridabad (4)X  21:40-21:41-1m22382.644206mNRold Faridabad, Haryana
50TKDTuglakabad (4)  21:53 21:56-21:55 21:58-2m--2393.745213mNRNear Tughlakabad Metro Station, Delhi NCT
51OKAOkhla (4)  22:03 22:06-22:05 22:07-2 1m--2399.728221mNRIshwar Nagar Mathura Road, Delhi NCT
52NZMDelhi Hazrat Nizamuddin (7)X  22:20 22:15-22:50 22:35-30 20m32403.318209mNRNew Delhi 110013, Delhi NCT
53NDLS•New Delhi (16)•  23:15 23:00-00:10-55 70m52410.720215mNRNew Delhi, Delhi NCT
54SSBShakur BastiO  00:43-00:44-1m--3421.670216mNRPitampura, Delhi NCT
55BGZBahadurgarh  01:01-01:02-1m--3441.569220mNRBahadurgarh, Haryana
56ROKRohtak Junction (3)O  01:35 01:37-01:40-5 3m--3481.862220mNRRohtak, Haryana
57JINDJind Junction (3)  02:35-02:40-5m--3538.978222mNR126102., Haryana
58NRWNarwana Junction (4)O  03:06-03:07-1m--3572.873235mNRWay to Narwana, Haryana
59TUNTohana (2)  03:28-03:29-1m--3598.324232mNRTohana, Haryana
60JHLJakhal JunctionX  04:05 04:00-04:10 04:05-5m--3610.560225mNRJakhal, Haryana
61LHALehra Gaga (1)  04:22-04:24-2m13627.471227mNRSangrur, Punjab
62SFMSunam (1)  04:42-04:44-2m13648.764235mNRSunam, Punjab
63SAGSangrur (2)X  04:56-04:58-2m23661.530239mNRSangrur, Punjab
64DUIDhuri Junction (4)O  05:30-05:35-5m--3677.578248mNRDhuri, Punjab
65METMalerkotla (2)  05:48-05:50-2m23694.366248mNRMalerkotla., Punjab
66AHHAhmadgarh (1)X  06:08-06:09 06:10-1 2m13714.226256mNRAhmedgarh, Punjab
67QRPKila Raipur (1)  06:26 06:28-06:28 06:30-2m13721.936262mNRDelhon Pakhowal Rd, Punjab
68LDHLudhiana Junction (7)XO  06:50 07:00-07:00 07:10-10m63739.660246mNRLudhiana 141001, Punjab
69PHRPhillaur Junction (3)XO  07:23-07:25-2m23752.775246mNRPhillaur, Punjab
70PGWPhagwara Junction (3)XO  07:43-07:45-2m23775.365245mNRPhagwara, Punjab
71JRCJalandhar Cantt. Junction (3)O  08:00-08:05-5m33791.663239mNRNear Rama Mandi, Punjab
72TDOTanda Urmar (3)O  08:45-08:47-2m13833.866239mNRUrmar Tanda, Punjab
73DZADasuya (2)O  09:01-09:03-2m23849.256251mNRDasuya distt. hoshiarpur, Punjab
74MEXMukerian (3)X  09:19-09:21-2m23864.235257mNRMukerian distt. hosiharpur, Punjab
75PTKCPathankot Cantt (3)X  10:30-10:35-5m23904.132328mNRPathankot By Pass Ph:0186-2251594, Punjab
76KTHUKathua (2)XO  11:19-11:21-2m13927.262396mNRdistt. kathua, Jammu and Kashmir
77SMBXSamba (2)  12:03-12:05-2m23970.830365mNRDist. Samba, Jammu and Kashmir
78JATJammu Tawi (3)  13:10--331003.5-337mNRJammu 180002, Jammu and Kashmir
Scroll to Top
Scroll to Bottom